Time;durP1;ratioP1;P1;durP2;ratioP2;P2;SDS_P1;SDS_P2;PMS_P1;PMS_P2;Temp;Humidity;BMP_temperature;BMP_pressure;BME280_temperature;BME280_humidity;BME280_pressure;Samples;Min_cycle;Max_cycle;Signal;HPM_P1;HPM_P2
2023/02/08 00:01:09;;;;;;;11.23;2.60;;;;;;;;;;5034039;28;20041;-35
2023/02/08 00:03:37;;;;;;;8.43;2.47;;;;;;;;;;5034164;28;20037;-36
2023/02/08 00:06:05;;;;;;;15.15;2.78;;;;;;;;;;5033951;28;20064;-35
2023/02/08 00:08:32;;;;;;;10.93;2.90;;;;;;;;;;5033838;28;20041;-36
2023/02/08 00:10:59;;;;;;;12.30;3.10;;;;;;;;;;5051107;28;20487;-37
2023/02/08 00:13:26;;;;;;;16.08;2.67;;;;;;;;;;5053916;28;20029;-36
2023/02/08 00:15:54;;;;;;;17.08;3.42;;;;;;;;;;5053748;28;20083;-36
2023/02/08 00:18:21;;;;;;;15.48;3.00;;;;;;;;;;5053807;28;20032;-35
2023/02/08 00:20:49;;;;;;;14.82;2.92;;;;;;;;;;5053733;28;20029;-35
2023/02/08 00:23:16;;;;;;;13.63;2.88;;;;;;;;;;5053692;28;20021;-35
2023/02/08 00:25:43;;;;;;;16.83;2.83;;;;;;;;;;5053606;28;20040;-35
2023/02/08 00:28:14;;;;;;;13.55;2.58;;;;;;;;;;5053468;28;20037;-35
2023/02/08 00:30:41;;;;;;;14.63;2.97;;;;;;;;;;5053579;28;20510;-36
2023/02/08 00:33:08;;;;;;;16.30;3.17;;;;;;;;;;5053554;28;20040;-36
2023/02/08 00:35:35;;;;;;;12.55;2.80;;;;;;;;;;5053148;28;20463;-35
2023/02/08 00:38:02;;;;;;;14.65;3.53;;;;;;;;;;5053419;28;20028;-35
2023/02/08 00:40:29;;;;;;;10.90;2.58;;;;;;;;;;5053379;28;20269;-35
2023/02/08 00:42:56;;;;;;;9.57;2.72;;;;;;;;;;5053402;28;20037;-35
2023/02/08 00:45:23;;;;;;;13.15;2.97;;;;;;;;;;5053174;28;20025;-36
2023/02/08 00:47:50;;;;;;;13.07;2.70;;;;;;;;;;5053086;28;20037;-36
2023/02/08 00:50:17;;;;;;;13.85;2.83;;;;;;;;;;5051965;28;20021;-36
2023/02/08 00:52:44;;;;;;;13.57;2.83;;;;;;;;;;5051858;28;20032;-35
2023/02/08 00:55:11;;;;;;;21.63;3.22;;;;;;;;;;5053018;28;20074;-36
2023/02/08 00:57:38;;;;;;;13.93;3.00;;;;;;;;;;5052911;28;20048;-36
2023/02/08 01:00:06;;;;;;;8.15;2.40;;;;;;;;;;5052921;28;20033;-42
2023/02/08 01:02:33;;;;;;;15.20;2.97;;;;;;;;;;5052947;28;20080;-36
2023/02/08 01:05:00;;;;;;;13.68;3.30;;;;;;;;;;5052821;28;20029;-35
2023/02/08 01:07:27;;;;;;;13.27;2.85;;;;;;;;;;5052820;28;20167;-36
2023/02/08 01:09:54;;;;;;;9.68;2.60;;;;;;;;;;5052824;28;20025;-36
2023/02/08 01:12:21;;;;;;;15.40;2.95;;;;;;;;;;5052747;28;20049;-35
2023/02/08 01:14:48;;;;;;;14.15;3.08;;;;;;;;;;5052571;28;20044;-36
2023/02/08 01:17:15;;;;;;;16.67;3.10;;;;;;;;;;5052674;28;20492;-36
2023/02/08 01:19:42;;;;;;;13.77;3.08;;;;;;;;;;5052635;28;20025;-35
2023/02/08 01:22:09;;;;;;;18.77;3.25;;;;;;;;;;5052636;28;20021;-36
2023/02/08 01:24:35;;;;;;;12.65;3.10;;;;;;;;;;5052451;28;20029;-36
2023/02/08 01:27:02;;;;;;;15.95;3.63;;;;;;;;;;5052247;28;20075;-36
2023/02/08 01:29:29;;;;;;;16.15;3.50;;;;;;;;;;5052425;28;20483;-35
2023/02/08 01:31:56;;;;;;;18.60;3.80;;;;;;;;;;5052483;28;20028;-37
2023/02/08 01:34:23;;;;;;;15.77;3.38;;;;;;;;;;5052335;28;20471;-35
2023/02/08 01:36:50;;;;;;;16.13;3.10;;;;;;;;;;5052281;28;20070;-35
2023/02/08 01:39:17;;;;;;;20.40;4.50;;;;;;;;;;5052157;28;20060;-35
2023/02/08 01:41:45;;;;;;;16.00;3.85;;;;;;;;;;5052129;28;20029;-35
2023/02/08 01:44:12;;;;;;;17.88;3.60;;;;;;;;;;5052159;28;20031;-36
2023/02/08 01:46:39;;;;;;;12.93;3.30;;;;;;;;;;5051947;28;20483;-37
2023/02/08 01:49:18;;;;;;;18.05;3.55;;;;;;;;;;5051953;28;20531;-37
2023/02/08 01:52:11;;;;;;;16.33;3.30;;;;;;;;;;5051979;28;20021;-36
2023/02/08 01:54:40;;;;;;;16.00;2.88;;;;;;;;;;5048445;28;20037;-36
2023/02/08 01:57:07;;;;;;;20.52;3.35;;;;;;;;;;5051645;28;20056;-36
2023/02/08 01:59:46;;;;;;;11.80;2.72;;;;;;;;;;5051873;28;20075;-36
2023/02/08 02:02:15;;;;;;;14.43;3.30;;;;;;;;;;5051477;28;20025;-36
2023/02/08 02:04:43;;;;;;;16.95;3.67;;;;;;;;;;5051687;28;20071;-35
2023/02/08 02:07:10;;;;;;;14.05;3.50;;;;;;;;;;5050396;28;20056;-36
2023/02/08 02:09:43;;;;;;;11.77;2.67;;;;;;;;;;5051648;28;20035;-37
2023/02/08 02:12:10;;;;;;;17.35;3.42;;;;;;;;;;5051669;28;20507;-37
2023/02/08 02:14:38;;;;;;;14.13;3.15;;;;;;;;;;5051476;28;20033;-36
2023/02/08 02:17:05;;;;;;;14.20;3.00;;;;;;;;;;5051554;28;20495;-36
2023/02/08 02:19:38;;;;;;;14.20;2.60;;;;;;;;;;5051521;28;20025;-36
2023/02/08 02:22:11;;;;;;;16.00;2.90;;;;;;;;;;5051369;28;20044;-35
2023/02/08 02:24:56;;;;;;;14.57;3.03;;;;;;;;;;5051087;28;20079;-36
2023/02/08 02:27:23;;;;;;;13.93;3.33;;;;;;;;;;5051347;28;20094;-35
2023/02/08 02:30:08;;;;;;;13.05;2.50;;;;;;;;;;5051244;28;20380;-36
2023/02/08 02:32:39;;;;;;;15.52;2.70;;;;;;;;;;5051349;28;20029;-36
2023/02/08 02:35:28;;;;;;;11.77;2.80;;;;;;;;;;5051048;28;20028;-35
2023/02/08 02:38:02;;;;;;;18.60;2.90;;;;;;;;;;5051075;28;20033;-35
2023/02/08 02:40:32;;;;;;;16.38;3.15;;;;;;;;;;5051100;28;20021;-36
2023/02/08 02:45:56;;;;;;;12.57;2.72;;;;;;;;;;5050990;28;20055;-36
2023/02/08 02:48:53;;;;;;;10.63;2.65;;;;;;;;;;5051071;28;20060;-36
2023/02/08 02:51:22;;;;;;;11.95;2.78;;;;;;;;;;4980216;28;20043;-35
2023/02/08 02:54:08;;;;;;;12.07;3.17;;;;;;;;;;5051098;28;20104;-36
2023/02/08 02:56:41;;;;;;;10.88;2.50;;;;;;;;;;5050618;28;20411;-35
2023/02/08 02:59:09;;;;;;;10.75;2.58;;;;;;;;;;5050830;28;20049;-35
2023/02/08 03:01:36;;;;;;;9.35;2.67;;;;;;;;;;5051140;28;20541;-35
2023/02/08 03:04:35;;;;;;;15.55;2.63;;;;;;;;;;5051000;28;20040;-35
2023/02/08 03:07:07;;;;;;;10.60;2.55;;;;;;;;;;5050791;28;20036;-35
2023/02/08 03:09:36;;;;;;;10.60;2.67;;;;;;;;;;5050942;28;20079;-35
2023/02/08 03:12:22;;;;;;;11.70;2.65;;;;;;;;;;5050875;28;20025;-35
2023/02/08 03:14:58;;;;;;;10.10;2.60;;;;;;;;;;5054899;28;20478;-36
2023/02/08 03:17:24;;;;;;;11.27;2.80;;;;;;;;;;5054922;28;20416;-36
2023/02/08 03:20:05;;;;;;;11.45;2.67;;;;;;;;;;5054880;28;20052;-35
2023/02/08 03:22:34;;;;;;;10.65;2.78;;;;;;;;;;5054870;28;20021;-36
2023/02/08 03:25:30;;;;;;;10.73;2.75;;;;;;;;;;5054621;28;20471;-36
2023/02/08 03:28:05;;;;;;;9.57;2.30;;;;;;;;;;5037927;28;20041;-35
2023/02/08 03:30:52;;;;;;;8.70;2.17;;;;;;;;;;5054557;28;20753;-35
2023/02/08 03:33:29;;;;;;;11.38;2.53;;;;;;;;;;5054677;28;20025;-36
2023/02/08 03:36:03;;;;;;;8.18;2.30;;;;;;;;;;5054504;28;20025;-35
2023/02/08 03:38:33;;;;;;;8.98;2.45;;;;;;;;;;5054618;28;20525;-36
2023/02/08 03:41:01;;;;;;;6.72;2.40;;;;;;;;;;5054510;28;20048;-36
2023/02/08 03:43:30;;;;;;;15.45;2.78;;;;;;;;;;5054516;28;20025;-36
2023/02/08 03:46:06;;;;;;;10.45;2.85;;;;;;;;;;5054332;28;20809;-35
2023/02/08 03:48:34;;;;;;;11.73;2.85;;;;;;;;;;5054243;28;20399;-35
2023/02/08 03:51:02;;;;;;;10.93;2.35;;;;;;;;;;5054296;28;20028;-36
2023/02/08 03:53:31;;;;;;;9.07;2.50;;;;;;;;;;5054283;28;20466;-36
2023/02/08 03:55:59;;;;;;;9.55;2.30;;;;;;;;;;5054106;28;20052;-36
2023/02/08 03:58:31;;;;;;;12.32;2.88;;;;;;;;;;5054229;28;20033;-35
2023/02/08 04:01:01;;;;;;;8.85;2.38;;;;;;;;;;5054170;28;20075;-36
2023/02/08 04:03:30;;;;;;;9.52;2.58;;;;;;;;;;5054030;28;20029;-36
2023/02/08 04:05:57;;;;;;;7.82;2.65;;;;;;;;;;5052448;28;20025;-36
2023/02/08 04:08:24;;;;;;;10.52;2.22;;;;;;;;;;5053933;28;20036;-36
2023/02/08 04:10:51;;;;;;;11.55;2.40;;;;;;;;;;5053881;28;20491;-37
2023/02/08 04:13:18;;;;;;;9.23;2.58;;;;;;;;;;5053945;28;20032;-36
2023/02/08 04:15:45;;;;;;;12.13;2.83;;;;;;;;;;5053730;28;20029;-35
2023/02/08 04:18:12;;;;;;;7.80;2.25;;;;;;;;;;5053734;28;20083;-35
2023/02/08 04:20:39;;;;;;;7.53;2.45;;;;;;;;;;5053783;28;20025;-36
2023/02/08 04:23:06;;;;;;;11.85;2.58;;;;;;;;;;5053610;28;20090;-36
2023/02/08 04:25:33;;;;;;;10.07;2.60;;;;;;;;;;5053344;28;20028;-35
2023/02/08 04:28:00;;;;;;;8.63;2.58;;;;;;;;;;5053520;28;20514;-36
2023/02/08 04:30:27;;;;;;;7.18;2.17;;;;;;;;;;5053738;28;20060;-35
2023/02/08 04:32:54;;;;;;;9.73;2.47;;;;;;;;;;5053455;28;20075;-36
2023/02/08 04:35:21;;;;;;;8.93;2.08;;;;;;;;;;5053485;28;20672;-35
2023/02/08 04:37:48;;;;;;;9.73;2.40;;;;;;;;;;5053436;28;20025;-36
2023/02/08 04:40:15;;;;;;;9.40;2.58;;;;;;;;;;5053343;28;20392;-36
2023/02/08 04:42:42;;;;;;;9.85;2.10;;;;;;;;;;5053316;28;20037;-36
2023/02/08 04:45:09;;;;;;;11.38;2.88;;;;;;;;;;5053207;28;20017;-36
2023/02/08 04:47:36;;;;;;;8.15;1.80;;;;;;;;;;5053140;28;20037;-35
2023/02/08 04:50:03;;;;;;;8.52;2.35;;;;;;;;;;5053066;28;20449;-35
2023/02/08 04:52:30;;;;;;;7.30;2.20;;;;;;;;;;5053022;28;20387;-35
2023/02/08 04:58:14;;;;;;;10.80;2.40;;;;;;;;;;5038920;28;20577;-35
2023/02/08 05:03:57;;;;;;;5.88;2.10;;;;;;;;;;5055233;28;20025;-36
2023/02/08 05:09:40;;;;;;;7.68;2.30;;;;;;;;;;5054947;28;20557;-36
2023/02/08 05:15:23;;;;;;;8.35;2.13;;;;;;;;;;5054781;28;20359;-36
2023/02/08 05:21:05;;;;;;;9.25;1.95;;;;;;;;;;5053874;28;20124;-35
2023/02/08 05:23:32;;;;;;;7.30;1.65;;;;;;;;;;5052583;28;20035;-35
2023/02/08 05:25:59;;;;;;;7.00;2.30;;;;;;;;;;5052537;28;20063;-36
2023/02/08 05:28:26;;;;;;;8.27;2.00;;;;;;;;;;5052353;28;20033;-36
2023/02/08 05:30:53;;;;;;;8.60;2.28;;;;;;;;;;5052434;28;20020;-36
2023/02/08 05:33:20;;;;;;;6.40;1.77;;;;;;;;;;5052373;28;20384;-36
2023/02/08 05:35:47;;;;;;;6.72;2.15;;;;;;;;;;5051625;28;20162;-38
2023/02/08 05:38:14;;;;;;;6.45;2.08;;;;;;;;;;5052306;28;20029;-35
2023/02/08 05:40:41;;;;;;;6.72;1.80;;;;;;;;;;5052269;28;20027;-36
2023/02/08 05:43:08;;;;;;;6.78;2.03;;;;;;;;;;5052233;28;20083;-36
2023/02/08 05:45:35;;;;;;;9.60;1.70;;;;;;;;;;5052077;28;20028;-36
2023/02/08 05:48:02;;;;;;;8.98;2.05;;;;;;;;;;5052035;28;20083;-37
2023/02/08 05:50:30;;;;;;;6.50;1.73;;;;;;;;;;5051910;28;20035;-36
2023/02/08 05:52:57;;;;;;;6.35;2.00;;;;;;;;;;5051875;28;20037;-38
2023/02/08 05:55:26;;;;;;;7.88;2.00;;;;;;;;;;5051901;28;20545;-35
2023/02/08 05:57:52;;;;;;;6.57;1.63;;;;;;;;;;5040214;28;20049;-36
2023/02/08 06:00:20;;;;;;;5.13;1.90;;;;;;;;;;5031885;28;20029;-34
2023/02/08 06:02:47;;;;;;;7.88;1.73;;;;;;;;;;5046153;28;20033;-36
2023/02/08 06:05:14;;;;;;;8.13;2.53;;;;;;;;;;5051683;28;20078;-36
2023/02/08 06:07:41;;;;;;;7.57;1.90;;;;;;;;;;5051708;28;20033;-36
2023/02/08 06:10:08;;;;;;;7.25;1.75;;;;;;;;;;5051782;28;20021;-36
2023/02/08 06:12:35;;;;;;;7.20;1.77;;;;;;;;;;5051717;28;20478;-36
2023/02/08 06:15:02;;;;;;;5.90;1.80;;;;;;;;;;5051546;28;20033;-35
2023/02/08 06:17:29;;;;;;;6.15;1.77;;;;;;;;;;5051611;28;20067;-36
2023/02/08 06:19:56;;;;;;;5.88;1.90;;;;;;;;;;5051569;28;20036;-36
2023/02/08 06:22:23;;;;;;;9.38;2.13;;;;;;;;;;5051528;28;20056;-36
2023/02/08 06:24:50;;;;;;;7.15;1.98;;;;;;;;;;5051465;28;20498;-35
2023/02/08 06:27:17;;;;;;;6.25;1.70;;;;;;;;;;5051302;28;20036;-36
2023/02/08 06:29:44;;;;;;;6.13;1.70;;;;;;;;;;5051458;28;20032;-35
2023/02/08 06:32:11;;;;;;;7.82;1.85;;;;;;;;;;5051268;28;20048;-36
2023/02/08 06:34:38;;;;;;;8.70;1.80;;;;;;;;;;5051283;28;20032;-36
2023/02/08 06:37:05;;;;;;;6.55;1.60;;;;;;;;;;5051381;28;20025;-36
2023/02/08 06:39:32;;;;;;;6.28;1.70;;;;;;;;;;5051307;28;20487;-35
2023/02/08 06:41:59;;;;;;;4.45;1.55;;;;;;;;;;5051265;28;20021;-35
2023/02/08 06:44:26;;;;;;;8.95;1.70;;;;;;;;;;5051129;28;20021;-35
2023/02/08 06:46:53;;;;;;;6.68;1.73;;;;;;;;;;5050581;28;20100;-36
2023/02/08 06:49:20;;;;;;;8.18;1.48;;;;;;;;;;5050856;28;20025;-35
2023/02/08 06:51:47;;;;;;;6.53;1.48;;;;;;;;;;5051154;28;20100;-36
2023/02/08 06:54:14;;;;;;;2.53;1.35;;;;;;;;;;5051047;28;20075;-36
2023/02/08 06:56:41;;;;;;;4.10;1.50;;;;;;;;;;5050862;28;20033;-35
2023/02/08 06:59:08;;;;;;;4.68;1.70;;;;;;;;;;5050881;28;20041;-35
2023/02/08 07:01:35;;;;;;;4.18;1.50;;;;;;;;;;5050970;28;20025;-35
2023/02/08 07:04:02;;;;;;;4.22;1.50;;;;;;;;;;5050898;28;20479;-35
2023/02/08 07:06:29;;;;;;;7.15;1.65;;;;;;;;;;5050968;28;20489;-36
2023/02/08 07:08:56;;;;;;;6.82;1.70;;;;;;;;;;5050980;28;20091;-36
2023/02/08 07:11:23;;;;;;;4.03;1.45;;;;;;;;;;5050989;28;20391;-36
2023/02/08 07:13:51;;;;;;;5.53;1.63;;;;;;;;;;5049460;28;20094;-36
2023/02/08 07:16:19;;;;;;;5.03;1.30;;;;;;;;;;5050961;28;20033;-35
2023/02/08 07:18:46;;;;;;;6.53;1.73;;;;;;;;;;5050920;28;20029;-36
2023/02/08 07:21:13;;;;;;;6.72;1.48;;;;;;;;;;5050838;28;20025;-36
2023/02/08 07:23:40;;;;;;;3.70;1.60;;;;;;;;;;5050893;28;20577;-36
2023/02/08 07:26:11;;;;;;;5.72;1.55;;;;;;;;;;5050748;28;20060;-36
2023/02/08 07:28:38;;;;;;;3.80;1.30;;;;;;;;;;5050777;28;20036;-37
2023/02/08 07:31:06;;;;;;;4.30;1.40;;;;;;;;;;5050750;28;20021;-36
2023/02/08 07:33:33;;;;;;;4.85;1.25;;;;;;;;;;5050770;28;20364;-37
2023/02/08 07:36:00;;;;;;;5.97;1.50;;;;;;;;;;5050750;28;20037;-36
2023/02/08 07:38:27;;;;;;;4.90;1.30;;;;;;;;;;5050632;28;20542;-35
2023/02/08 07:41:00;;;;;;;4.15;1.02;;;;;;;;;;5050730;28;20029;-36
2023/02/08 07:43:27;;;;;;;4.45;1.48;;;;;;;;;;5050688;28;20184;-35
2023/02/08 07:45:54;;;;;;;4.43;1.25;;;;;;;;;;5050536;28;20029;-36
2023/02/08 07:48:21;;;;;;;3.53;1.10;;;;;;;;;;5050642;28;20407;-36
2023/02/08 07:50:47;;;;;;;3.15;1.27;;;;;;;;;;5050631;28;20029;-36
2023/02/08 07:53:15;;;;;;;5.35;1.20;;;;;;;;;;5050525;28;20033;-38
2023/02/08 07:55:44;;;;;;;2.47;1.27;;;;;;;;;;5050221;28;20041;-37
2023/02/08 07:58:11;;;;;;;3.60;1.02;;;;;;;;;;5048784;28;20041;-37
2023/02/08 08:00:38;;;;;;;4.50;1.63;;;;;;;;;;5054150;28;20048;-36
2023/02/08 08:03:05;;;;;;;3.28;1.10;;;;;;;;;;5054179;28;20037;-37
2023/02/08 08:05:32;;;;;;;6.00;1.25;;;;;;;;;;5054003;28;20507;-37
2023/02/08 08:07:59;;;;;;;3.08;1.38;;;;;;;;;;5054025;28;20032;-36
2023/02/08 08:10:26;;;;;;;4.32;1.38;;;;;;;;;;5054045;28;20025;-37
2023/02/08 08:12:53;;;;;;;3.85;1.30;;;;;;;;;;5053970;28;20117;-36
2023/02/08 08:15:20;;;;;;;3.42;1.48;;;;;;;;;;5053790;28;20029;-36
2023/02/08 08:17:47;;;;;;;6.35;1.40;;;;;;;;;;5053758;28;20065;-36
2023/02/08 08:20:14;;;;;;;2.38;1.20;;;;;;;;;;5053811;28;20033;-36
2023/02/08 08:22:41;;;;;;;4.07;1.60;;;;;;;;;;5053721;28;20033;-36
2023/02/08 08:25:08;;;;;;;3.55;1.40;;;;;;;;;;5053731;28;20553;-36
2023/02/08 08:27:35;;;;;;;4.55;1.42;;;;;;;;;;5053682;28;20029;-35
2023/02/08 08:30:02;;;;;;;2.03;1.20;;;;;;;;;;5053630;28;20027;-35
2023/02/08 08:32:29;;;;;;;6.40;1.60;;;;;;;;;;5052349;28;20060;-36
2023/02/08 08:34:55;;;;;;;8.70;1.27;;;;;;;;;;5053400;28;20032;-35
2023/02/08 08:37:22;;;;;;;7.10;1.30;;;;;;;;;;5053414;28;20116;-36
2023/02/08 08:39:49;;;;;;;4.43;1.50;;;;;;;;;;5053465;28;20025;-36
2023/02/08 08:42:16;;;;;;;3.90;1.20;;;;;;;;;;5053351;28;20525;-35
2023/02/08 08:44:43;;;;;;;3.20;1.35;;;;;;;;;;5053307;28;20479;-36
2023/02/08 08:47:11;;;;;;;2.05;1.20;;;;;;;;;;5051864;28;20076;-36
2023/02/08 08:49:39;;;;;;;3.70;1.38;;;;;;;;;;5053130;28;20036;-35
2023/02/08 08:52:06;;;;;;;2.90;1.25;;;;;;;;;;5053180;28;20487;-35
2023/02/08 08:54:34;;;;;;;3.38;1.52;;;;;;;;;;5052915;28;20376;-36
2023/02/08 08:57:01;;;;;;;2.67;1.15;;;;;;;;;;5053064;28;20028;-35
2023/02/08 08:59:28;;;;;;;3.13;1.35;;;;;;;;;;5052966;28;20060;-35
2023/02/08 09:01:55;;;;;;;5.32;1.30;;;;;;;;;;5053100;28;20037;-36
2023/02/08 09:04:22;;;;;;;3.90;1.10;;;;;;;;;;5052912;28;20021;-36
2023/02/08 09:06:49;;;;;;;7.03;1.50;;;;;;;;;;5052935;28;20513;-35
2023/02/08 09:09:17;;;;;;;4.65;1.38;;;;;;;;;;5051462;28;20037;-35
2023/02/08 09:11:44;;;;;;;14.60;1.98;;;;;;;;;;5051945;28;20032;-36
2023/02/08 09:14:11;;;;;;;11.60;1.85;;;;;;;;;;5052739;28;20116;-35
2023/02/08 09:16:40;;;;;;;8.90;1.77;;;;;;;;;;5052823;28;20021;-36
2023/02/08 09:19:07;;;;;;;5.28;1.38;;;;;;;;;;5052690;28;20032;-36
2023/02/08 09:21:35;;;;;;;3.42;1.30;;;;;;;;;;5052667;28;20067;-36
2023/02/08 09:24:02;;;;;;;13.98;2.20;;;;;;;;;;5052553;28;20179;-37
2023/02/08 09:26:29;;;;;;;9.48;2.00;;;;;;;;;;5051107;28;20112;-36
2023/02/08 09:28:56;;;;;;;4.75;1.60;;;;;;;;;;5052597;28;20025;-36
2023/02/08 09:31:37;;;;;;;5.97;1.40;;;;;;;;;;5052497;28;20039;-36
2023/02/08 09:34:04;;;;;;;6.05;1.50;;;;;;;;;;5052354;28;20040;-36
2023/02/08 09:36:36;;;;;;;7.80;1.60;;;;;;;;;;5052325;28;20032;-35
2023/02/08 09:39:08;;;;;;;6.07;1.48;;;;;;;;;;5052100;28;20475;-36
2023/02/08 09:41:48;;;;;;;3.92;1.63;;;;;;;;;;5052317;28;20021;-35
2023/02/08 09:44:26;;;;;;;4.25;1.40;;;;;;;;;;5052189;28;20028;-36
2023/02/08 09:47:11;;;;;;;16.75;2.75;;;;;;;;;;5052144;28;20024;-36
2023/02/08 09:49:41;;;;;;;7.85;2.10;;;;;;;;;;5052173;28;20036;-37
2023/02/08 09:52:16;;;;;;;8.02;1.40;;;;;;;;;;5052088;28;20070;-36
2023/02/08 09:54:45;;;;;;;5.68;1.55;;;;;;;;;;5051912;28;20021;-37
2023/02/08 09:57:14;;;;;;;18.15;2.40;;;;;;;;;;5051851;28;20041;-36
2023/02/08 09:59:44;;;;;;;14.20;2.00;;;;;;;;;;5051721;28;20052;-38
2023/02/08 10:02:14;;;;;;;17.63;2.50;;;;;;;;;;5051742;28;20036;-36
2023/02/08 10:05:10;;;;;;;13.60;2.13;;;;;;;;;;5051729;28;20029;-36
2023/02/08 10:07:39;;;;;;;6.20;1.88;;;;;;;;;;5039007;28;20037;-37
2023/02/08 10:10:08;;;;;;;10.70;2.20;;;;;;;;;;5051780;28;20028;-36
2023/02/08 10:12:43;;;;;;;15.57;2.05;;;;;;;;;;5051669;28;20065;-36
2023/02/08 10:15:22;;;;;;;27.02;3.00;;;;;;;;;;5051587;28;20078;-36
2023/02/08 10:18:09;;;;;;;11.20;2.95;;;;;;;;;;5051523;28;20041;-37
2023/02/08 10:20:36;;;;;;;11.02;2.45;;;;;;;;;;5041432;28;20056;-35
2023/02/08 10:23:11;;;;;;;13.23;2.38;;;;;;;;;;5051323;28;20060;-35
2023/02/08 10:25:38;;;;;;;12.10;1.92;;;;;;;;;;5051445;28;20029;-35
2023/02/08 10:28:07;;;;;;;17.15;2.33;;;;;;;;;;5051413;28;20029;-38
2023/02/08 10:30:46;;;;;;;11.93;2.15;;;;;;;;;;5051459;28;20020;-35
2023/02/08 10:33:29;;;;;;;12.13;2.03;;;;;;;;;;5051375;28;20033;-36
2023/02/08 10:35:57;;;;;;;14.05;2.20;;;;;;;;;;5051366;28;20032;-35
2023/02/08 10:38:25;;;;;;;14.40;2.40;;;;;;;;;;5051046;28;20487;-35
2023/02/08 10:40:58;;;;;;;14.23;2.17;;;;;;;;;;5051229;28;20372;-36
2023/02/08 10:43:40;;;;;;;13.38;2.25;;;;;;;;;;5051073;28;20040;-35
2023/02/08 10:46:16;;;;;;;15.70;2.63;;;;;;;;;;5051242;28;20052;-36
2023/02/08 10:48:49;;;;;;;10.00;1.83;;;;;;;;;;5051065;28;20037;-35
2023/02/08 10:51:20;;;;;;;13.65;2.60;;;;;;;;;;5051122;28;20033;-36
2023/02/08 10:53:47;;;;;;;15.90;3.00;;;;;;;;;;5050887;28;20032;-36
2023/02/08 10:56:29;;;;;;;11.55;2.20;;;;;;;;;;5051047;28;20025;-35
2023/02/08 10:58:58;;;;;;;17.08;2.47;;;;;;;;;;5050811;28;20055;-35
2023/02/08 11:01:26;;;;;;;16.70;2.65;;;;;;;;;;5050999;28;20537;-36
2023/02/08 11:04:03;;;;;;;13.32;2.40;;;;;;;;;;5050853;28;20502;-36
2023/02/08 11:06:30;;;;;;;21.52;3.33;;;;;;;;;;5051005;28;20024;-35
2023/02/08 11:08:57;;;;;;;16.00;2.55;;;;;;;;;;5050979;28;20029;-36
2023/02/08 11:11:28;;;;;;;9.73;1.88;;;;;;;;;;5050689;28;20032;-35
2023/02/08 11:14:06;;;;;;;7.65;2.00;;;;;;;;;;5050866;28;20029;-36
2023/02/08 11:16:33;;;;;;;16.73;2.50;;;;;;;;;;5050900;28;20029;-36
2023/02/08 11:19:01;;;;;;;13.48;1.98;;;;;;;;;;5050797;28;20059;-35
2023/02/08 11:21:33;;;;;;;12.48;2.47;;;;;;;;;;5050860;28;20033;-36
2023/02/08 11:24:02;;;;;;;30.23;3.75;;;;;;;;;;5050831;28;20360;-35
2023/02/08 11:26:37;;;;;;;12.90;2.70;;;;;;;;;;5050879;28;20033;-36
2023/02/08 11:29:17;;;;;;;10.40;2.00;;;;;;;;;;5050830;28;20025;-36
2023/02/08 11:31:56;;;;;;;12.40;2.15;;;;;;;;;;5050737;28;20111;-36
2023/02/08 11:34:26;;;;;;;10.48;2.05;;;;;;;;;;5052552;28;20033;-35
2023/02/08 11:36:53;;;;;;;9.48;1.95;;;;;;;;;;5054570;28;20526;-35
2023/02/08 11:39:29;;;;;;;9.40;2.20;;;;;;;;;;5054660;28;20395;-35
2023/02/08 11:41:59;;;;;;;10.50;2.22;;;;;;;;;;5054534;28;20074;-36
2023/02/08 11:44:26;;;;;;;7.30;1.95;;;;;;;;;;5054450;28;20029;-35
2023/02/08 11:46:53;;;;;;;9.02;1.83;;;;;;;;;;5052990;28;20025;-37
2023/02/08 11:49:23;;;;;;;9.63;1.90;;;;;;;;;;5054380;28;20108;-36
2023/02/08 11:51:51;;;;;;;8.85;2.10;;;;;;;;;;5054410;28;20301;-36
2023/02/08 11:54:38;;;;;;;7.47;1.92;;;;;;;;;;5054147;28;20033;-37
2023/02/08 11:57:12;;;;;;;12.13;2.20;;;;;;;;;;5053978;28;20047;-36
2023/02/08 11:59:39;;;;;;;12.07;2.65;;;;;;;;;;5053815;28;20449;-38
2023/02/08 12:02:32;;;;;;;8.60;1.83;;;;;;;;;;5054181;28;20032;-36
2023/02/08 12:04:59;;;;;;;9.63;2.38;;;;;;;;;;5051357;28;20051;-36
2023/02/08 12:07:45;;;;;;;12.20;2.22;;;;;;;;;;5054059;28;20390;-36
2023/02/08 12:10:14;;;;;;;6.90;1.85;;;;;;;;;;5054043;28;20387;-36
2023/02/08 12:12:59;;;;;;;7.13;2.30;;;;;;;;;;5053968;28;20021;-35
2023/02/08 12:15:26;;;;;;;9.10;2.28;;;;;;;;;;5053875;28;20032;-35
2023/02/08 12:18:19;;;;;;;11.30;2.50;;;;;;;;;;5053759;28;20403;-35
2023/02/08 12:20:46;;;;;;;10.00;2.10;;;;;;;;;;5030630;28;20036;-36
2023/02/08 12:23:26;;;;;;;8.85;2.20;;;;;;;;;;5053540;28;20041;-35
2023/02/08 12:26:11;;;;;;;7.18;2.22;;;;;;;;;;5053697;28;20079;-36
2023/02/08 12:28:43;;;;;;;12.30;2.30;;;;;;;;;;5053648;28;20108;-35
2023/02/08 12:31:33;;;;;;;8.20;2.15;;;;;;;;;;5053662;28;20078;-36
2023/02/08 12:34:00;;;;;;;7.47;2.10;;;;;;;;;;5045814;28;20198;-36
2023/02/08 12:36:42;;;;;;;6.97;2.20;;;;;;;;;;5053471;28;20028;-36
2023/02/08 12:41:54;;;;;;;15.50;2.40;;;;;;;;;;5053368;28;20729;-36
2023/02/08 12:44:43;;;;;;;9.60;2.28;;;;;;;;;;5053045;28;20398;-35
2023/02/08 12:47:20;;;;;;;8.23;2.33;;;;;;;;;;5053455;28;20568;-35
2023/02/08 12:49:56;;;;;;;8.50;1.95;;;;;;;;;;5053331;28;20536;-36
2023/02/08 12:52:26;;;;;;;11.15;2.38;;;;;;;;;;5053197;28;20028;-36
2023/02/08 12:55:08;;;;;;;11.20;2.97;;;;;;;;;;5053182;28;20500;-35
2023/02/08 12:57:35;;;;;;;9.35;2.83;;;;;;;;;;5052783;28;20049;-35
2023/02/08 13:00:02;;;;;;;15.15;3.03;;;;;;;;;;5053117;28;20052;-36
2023/02/08 13:02:43;;;;;;;6.72;1.83;;;;;;;;;;5053025;28;20048;-35
2023/02/08 13:05:16;;;;;;;10.10;2.40;;;;;;;;;;5052749;28;20380;-35
2023/02/08 13:07:44;;;;;;;5.82;1.85;;;;;;;;;;5052869;28;20037;-35
2023/02/08 13:10:14;;;;;;;6.32;1.92;;;;;;;;;;5052776;28;20040;-35
2023/02/08 13:12:52;;;;;;;9.77;2.28;;;;;;;;;;5052840;28;20068;-35
2023/02/08 13:15:21;;;;;;;11.40;2.20;;;;;;;;;;5052778;28;20025;-35
2023/02/08 13:17:57;;;;;;;9.98;2.00;;;;;;;;;;5052786;28;20117;-35
2023/02/08 13:20:27;;;;;;;7.68;2.13;;;;;;;;;;5052752;28;20039;-35
2023/02/08 13:22:58;;;;;;;10.80;2.13;;;;;;;;;;5052680;28;20025;-35
2023/02/08 13:25:35;;;;;;;8.43;2.13;;;;;;;;;;5052619;28;20024;-35
2023/02/08 13:28:10;;;;;;;9.43;2.58;;;;;;;;;;5052420;28;20037;-35
2023/02/08 13:30:39;;;;;;;14.27;2.47;;;;;;;;;;5052626;28;20037;-35
2023/02/08 13:33:15;;;;;;;7.80;2.30;;;;;;;;;;5052415;28;20036;-36
2023/02/08 13:35:42;;;;;;;9.90;1.98;;;;;;;;;;5052475;28;20067;-37
2023/02/08 13:38:29;;;;;;;7.72;2.30;;;;;;;;;;5052379;28;20148;-35
2023/02/08 13:41:16;;;;;;;6.75;1.95;;;;;;;;;;5052185;28;20025;-37
2023/02/08 13:43:54;;;;;;;8.65;2.05;;;;;;;;;;5051958;28;20036;-36
2023/02/08 13:46:23;;;;;;;8.50;1.90;;;;;;;;;;5052288;28;20025;-37
2023/02/08 13:48:51;;;;;;;8.20;2.28;;;;;;;;;;5052293;28;20036;-36
2023/02/08 13:51:31;;;;;;;12.82;2.40;;;;;;;;;;5052071;28;20558;-35
2023/02/08 13:53:58;;;;;;;8.20;2.05;;;;;;;;;;5051912;28;20033;-36
2023/02/08 13:56:39;;;;;;;8.15;2.05;;;;;;;;;;5051544;28;20086;-35
2023/02/08 13:59:26;;;;;;;11.00;2.30;;;;;;;;;;5051526;28;20053;-37
2023/02/08 14:02:11;;;;;;;6.93;2.40;;;;;;;;;;5021118;28;20037;-36
2023/02/08 14:04:39;;;;;;;9.20;2.38;;;;;;;;;;5051747;28;20390;-36
2023/02/08 14:07:15;;;;;;;7.55;1.92;;;;;;;;;;5051786;28;20047;-35
2023/02/08 14:10:08;;;;;;;6.38;2.05;;;;;;;;;;5051733;28;20558;-35
2023/02/08 14:12:50;;;;;;;6.45;1.85;;;;;;;;;;5048963;28;20167;-35
2023/02/08 14:15:17;;;;;;;6.75;2.30;;;;;;;;;;5051534;28;20086;-35
2023/02/08 14:17:45;;;;;;;6.68;2.10;;;;;;;;;;5051573;28;20095;-35
2023/02/08 14:20:20;;;;;;;7.45;2.25;;;;;;;;;;5051576;28;20036;-36
2023/02/08 14:22:51;;;;;;;7.28;2.17;;;;;;;;;;5051489;28;20117;-35
2023/02/08 14:25:20;;;;;;;10.03;2.10;;;;;;;;;;5051301;28;20391;-35
2023/02/08 14:27:53;;;;;;;9.18;2.00;;;;;;;;;;5051559;28;20044;-35
2023/02/08 14:30:23;;;;;;;7.47;2.00;;;;;;;;;;5051414;28;20033;-36
2023/02/08 14:32:50;;;;;;;8.57;2.28;;;;;;;;;;5051333;28;20025;-35
2023/02/08 14:35:17;;;;;;;5.53;1.83;;;;;;;;;;5051280;28;20094;-35
2023/02/08 14:37:44;;;;;;;7.75;1.85;;;;;;;;;;5051201;28;20122;-35
2023/02/08 14:40:20;;;;;;;8.20;2.03;;;;;;;;;;5051316;28;20060;-35
2023/02/08 14:42:56;;;;;;;10.90;2.33;;;;;;;;;;5051208;28;20491;-35
2023/02/08 14:45:32;;;;;;;10.80;2.15;;;;;;;;;;5051155;28;20052;-35
2023/02/08 14:47:59;;;;;;;9.63;2.03;;;;;;;;;;5051376;28;20032;-35
2023/02/08 14:50:28;;;;;;;8.88;2.03;;;;;;;;;;5051459;28;20029;-35
2023/02/08 14:52:55;;;;;;;7.80;2.05;;;;;;;;;;5051632;28;20017;-35
2023/02/08 14:55:27;;;;;;;9.43;2.20;;;;;;;;;;5051101;28;20028;-35
2023/02/08 14:57:54;;;;;;;;;;;;;;;;;;5051365;28;20048;-35
2023/02/08 15:00:26;;;;;;;10.82;2.38;;;;;;;;;;5050918;28;19909;-36
2023/02/08 15:02:53;;;;;;;7.88;2.10;;;;;;;;;;5051026;28;20040;-36
2023/02/08 15:05:26;;;;;;;7.55;2.25;;;;;;;;;;5050952;28;20112;-36
2023/02/08 15:07:52;;;;;;;;;;;;;;;;;;5051341;28;20116;-35
2023/02/08 15:10:20;;;;;;;7.72;2.17;;;;;;;;;;5054517;28;19912;-36
2023/02/08 15:12:49;;;;;;;11.05;2.45;;;;;;;;;;5055147;28;20031;-35
2023/02/08 15:15:23;;;;;;;9.63;2.05;;;;;;;;;;5055114;28;20036;-36
2023/02/08 15:17:51;;;;;;;10.07;2.40;;;;;;;;;;5055010;28;20044;-35
2023/02/08 15:20:22;;;;;;;11.00;2.33;;;;;;;;;;5054985;28;20021;-35